^^
Saratoga-Weather Station Historical Data
Daily Summary for March 14, 2021 Units:  Both    English   Metric
Daily Weekly Monthly Yearly Custom
  High: Low: Average:
Temperature: 71.4 °F /  21.9 °C 56.5 °F /  13.6 °C 63.9 °F /  17.7 °C
Dew Point: 65.3 °F /  18.5 °C 54.5 °F /  12.5 °C 59.7 °F /  15.4 °C
Humidity: 94% 76% 87%
Wind Speed: 4mph /  6.4km/h - 0.3mph /  0.5km/h
Wind Gust: 6mph /  9.7km/h - -
Wind- - ESE
Pressure: 30 in /  1014.2 hPa 29.9 in /  1011.9 hPa -
Precipitation: 0 in /  0.0 mm    
Historical Graphs
 
 
Tabular Data for March 14, 2021
Time Temperature Dew Point Pressure Wind Wind Speed Wind Gust Humidity Rainfall Rate (Hourly) solar
00:02 61 °F /  16.1 °C 57.7 °F /  14.3 °C 30in /  1014.2hPa Calm     89% 0in /  0.0mm 0 W/m2
00:07 61 °F /  16.1 °C 57.7 °F /  14.3 °C 30in /  1014.2hPa Calm     89% 0in /  0.0mm 0 W/m2
00:12 61 °F /  16.1 °C 57.7 °F /  14.3 °C 30in /  1014.2hPa Calm   2mph /  3.2km/h 89% 0in /  0.0mm 0 W/m2
00:17 60.8 °F /  16 °C 57.6 °F /  14.2 °C 30in /  1014.2hPa Calm     89% 0in /  0.0mm 0 W/m2
00:22 60.6 °F /  15.9 °C 57.4 °F /  14.1 °C 30in /  1014.2hPa SE 0.9mph /  1.4km/h 2mph /  3.2km/h 89% 0in /  0.0mm 0 W/m2
00:27 60.6 °F /  15.9 °C 57.4 °F /  14.1 °C 30in /  1014.2hPa Calm     89% 0in /  0.0mm 0 W/m2
00:32 60.4 °F /  15.8 °C 57.2 °F /  14 °C 30in /  1014.2hPa Calm   2mph /  3.2km/h 89% 0in /  0.0mm 0 W/m2
00:37 60.4 °F /  15.8 °C 57.2 °F /  14 °C 30in /  1014.2hPa Calm     89% 0in /  0.0mm 0 W/m2
00:42 60.3 °F /  15.7 °C 57.4 °F /  14.1 °C 30in /  1014.2hPa Calm     90% 0in /  0.0mm 0 W/m2
00:47 60.3 °F /  15.7 °C 57 °F /  13.9 °C 30in /  1014.2hPa Calm     89% 0in /  0.0mm 0 W/m2
00:52 60.1 °F /  15.6 °C 56.8 °F /  13.8 °C 30in /  1014.2hPa Calm     89% 0in /  0.0mm 0 W/m2
00:57 59.9 °F /  15.5 °C 57 °F /  13.9 °C 30in /  1014.2hPa Calm     90% 0in /  0.0mm 0 W/m2
01:02 59.7 °F /  15.4 °C 56.8 °F /  13.8 °C 30in /  1014.2hPa Calm     90% 0in /  0.0mm 0 W/m2
01:07 59.7 °F /  15.4 °C 56.8 °F /  13.8 °C 30in /  1014.2hPa Calm     90% 0in /  0.0mm 0 W/m2
01:12 59.5 °F /  15.3 °C 56.7 °F /  13.7 °C 30in /  1014.2hPa Calm     90% 0in /  0.0mm 0 W/m2
01:17 59.4 °F /  15.2 °C 56.5 °F /  13.6 °C 30in /  1014.2hPa Calm     90% 0in /  0.0mm 0 W/m2
01:22 59.4 °F /  15.2 °C 56.7 °F /  13.7 °C 30in /  1014.2hPa Calm     91% 0in /  0.0mm 0 W/m2
01:27 59.2 °F /  15.1 °C 56.5 °F /  13.6 °C 30in /  1014.2hPa Calm     91% 0in /  0.0mm 0 W/m2
01:32 59.2 °F /  15.1 °C 56.5 °F /  13.6 °C 30in /  1014.2hPa Calm     91% 0in /  0.0mm 0 W/m2
01:37 59.2 °F /  15.1 °C 56.5 °F /  13.6 °C 30in /  1014.2hPa Calm     91% 0in /  0.0mm 0 W/m2
01:42 58.8 °F /  14.9 °C 56.1 °F /  13.4 °C 30in /  1014.2hPa Calm     91% 0in /  0.0mm 0 W/m2
01:47 58.8 °F /  14.9 °C 56.1 °F /  13.4 °C 30in /  1014.2hPa Calm     91% 0in /  0.0mm 0 W/m2
01:52 58.6 °F /  14.8 °C 55.9 °F /  13.3 °C 30in /  1014.2hPa Calm     91% 0in /  0.0mm 0 W/m2
01:57 58.6 °F /  14.8 °C 55.9 °F /  13.3 °C 29.9in /  1013.9hPa Calm     91% 0in /  0.0mm 0 W/m2
02:02 58.5 °F /  14.7 °C 56.1 °F /  13.4 °C 29.9in /  1013.9hPa Calm     92% 0in /  0.0mm 0 W/m2
02:07 58.5 °F /  14.7 °C 56.1 °F /  13.4 °C 29.9in /  1013.9hPa Calm     92% 0in /  0.0mm 0 W/m2
02:12 58.5 °F /  14.7 °C 56.1 °F /  13.4 °C 29.9in /  1013.9hPa Calm     92% 0in /  0.0mm 0 W/m2
02:17 58.3 °F /  14.6 °C 55.9 °F /  13.3 °C 29.9in /  1013.9hPa Calm     92% 0in /  0.0mm 0 W/m2
02:27 58.1 °F /  14.5 °C 55.8 °F /  13.2 °C 29.9in /  1013.9hPa Calm     92% 0in /  0.0mm 0 W/m2
02:32 57.9 °F /  14.4 °C 55.6 °F /  13.1 °C 29.9in /  1013.5hPa Calm     92% 0in /  0.0mm 0 W/m2
02:37 57.9 °F /  14.4 °C 55.6 °F /  13.1 °C 29.9in /  1013.5hPa Calm     92% 0in /  0.0mm 0 W/m2
02:42 57.7 °F /  14.3 °C 55.4 °F /  13 °C 29.9in /  1013.5hPa Calm     92% 0in /  0.0mm 0 W/m2
02:47 57.7 °F /  14.3 °C 55.8 °F /  13.2 °C 29.9in /  1013.5hPa Calm     93% 0in /  0.0mm 0 W/m2
02:52 57.7 °F /  14.3 °C 55.8 °F /  13.2 °C 29.9in /  1013.9hPa Calm     93% 0in /  0.0mm 0 W/m2
02:57 57.6 °F /  14.2 °C 55.6 °F /  13.1 °C 29.9in /  1013.9hPa Calm     93% 0in /  0.0mm 0 W/m2
03:02 57.6 °F /  14.2 °C 55.6 °F /  13.1 °C 29.9in /  1013.5hPa Calm     93% 0in /  0.0mm 0 W/m2
03:07 57.6 °F /  14.2 °C 55.6 °F /  13.1 °C 29.9in /  1013.5hPa Calm     93% 0in /  0.0mm 0 W/m2
03:12 57.6 °F /  14.2 °C 55.6 °F /  13.1 °C 29.9in /  1013.5hPa Calm     93% 0in /  0.0mm 0 W/m2
03:18 57.6 °F /  14.2 °C 55.6 °F /  13.1 °C 29.9in /  1013.5hPa Calm     93% 0in /  0.0mm 0 W/m2
03:23 57.6 °F /  14.2 °C 55.6 °F /  13.1 °C 29.9in /  1013.5hPa Calm     93% 0in /  0.0mm 0 W/m2
03:28 57.6 °F /  14.2 °C 55.6 °F /  13.1 °C 29.9in /  1013.5hPa Calm     93% 0in /  0.0mm 0 W/m2
03:33 57.6 °F /  14.2 °C 55.6 °F /  13.1 °C 29.9in /  1013.5hPa Calm     93% 0in /  0.0mm 0 W/m2
03:38 57.6 °F /  14.2 °C 55.6 °F /  13.1 °C 29.9in /  1013.5hPa Calm     93% 0in /  0.0mm 0 W/m2
03:43 57.6 °F /  14.2 °C 55.6 °F /  13.1 °C 29.9in /  1013.5hPa Calm     93% 0in /  0.0mm 0 W/m2
03:48 57.6 °F /  14.2 °C 55.6 °F /  13.1 °C 29.9in /  1013.5hPa Calm     93% 0in /  0.0mm 0 W/m2
03:53 57.6 °F /  14.2 °C 55.6 °F /  13.1 °C 29.9in /  1013.5hPa Calm     93% 0in /  0.0mm 0 W/m2
03:58 57.7 °F /  14.3 °C 55.8 °F /  13.2 °C 29.9in /  1013.5hPa Calm   1mph /  1.6km/h 93% 0in /  0.0mm 0 W/m2
04:03 57.7 °F /  14.3 °C 55.8 °F /  13.2 °C 29.9in /  1013.5hPa Calm     93% 0in /  0.0mm 0 W/m2
04:08 57.7 °F /  14.3 °C 55.8 °F /  13.2 °C 29.9in /  1013.5hPa Calm     93% 0in /  0.0mm 0 W/m2
04:13 57.7 °F /  14.3 °C 55.8 °F /  13.2 °C 29.9in /  1013.5hPa Calm     93% 0in /  0.0mm 0 W/m2
04:18 57.9 °F /  14.4 °C 55.9 °F /  13.3 °C 29.9in /  1013.5hPa Calm     93% 0in /  0.0mm 0 W/m2
04:23 57.9 °F /  14.4 °C 55.6 °F /  13.1 °C 29.9in /  1013.2hPa Calm     92% 0in /  0.0mm 0 W/m2
04:28 57.9 °F /  14.4 °C 55.6 °F /  13.1 °C 29.9in /  1013.5hPa Calm     92% 0in /  0.0mm 0 W/m2
04:33 57.9 °F /  14.4 °C 55.6 °F /  13.1 °C 29.9in /  1013.5hPa Calm     92% 0in /  0.0mm 0 W/m2
04:38 57.7 °F /  14.3 °C 55.2 °F /  12.9 °C 29.9in /  1013.5hPa Calm     91% 0in /  0.0mm 0 W/m2
04:43 57.7 °F /  14.3 °C 55.2 °F /  12.9 °C 29.9in /  1013.5hPa Calm     91% 0in /  0.0mm 0 W/m2
04:48 57.6 °F /  14.2 °C 55.2 °F /  12.9 °C 29.9in /  1013.5hPa Calm     92% 0in /  0.0mm 0 W/m2
04:53 57.6 °F /  14.2 °C 55.2 °F /  12.9 °C 29.9in /  1013.5hPa Calm     92% 0in /  0.0mm 0 W/m2
04:58 57.6 °F /  14.2 °C 55.2 °F /  12.9 °C 29.9in /  1013.5hPa Calm     92% 0in /  0.0mm 0 W/m2
05:03 57.6 °F /  14.2 °C 55.2 °F /  12.9 °C 29.9in /  1013.5hPa Calm     92% 0in /  0.0mm 0 W/m2
05:08 57.4 °F /  14.1 °C 55 °F /  12.8 °C 29.9in /  1013.2hPa Calm     92% 0in /  0.0mm 0 W/m2
05:13 57.2 °F /  14 °C 54.9 °F /  12.7 °C 29.9in /  1013.5hPa Calm     92% 0in /  0.0mm 0 W/m2
05:18 57 °F /  13.9 °C 54.7 °F /  12.6 °C 29.9in /  1013.5hPa Calm     92% 0in /  0.0mm 0 W/m2
05:23 57 °F /  13.9 °C 54.7 °F /  12.6 °C 29.9in /  1013.5hPa Calm     92% 0in /  0.0mm 0 W/m2
05:28 57 °F /  13.9 °C 55 °F /  12.8 °C 29.9in /  1013.5hPa Calm     93% 0in /  0.0mm 0 W/m2
05:33 57 °F /  13.9 °C 55 °F /  12.8 °C 29.9in /  1013.2hPa Calm     93% 0in /  0.0mm 0 W/m2
05:38 56.8 °F /  13.8 °C 54.9 °F /  12.7 °C 29.9in /  1013.2hPa Calm     93% 0in /  0.0mm 0 W/m2
05:43 56.8 °F /  13.8 °C 54.9 °F /  12.7 °C 29.9in /  1013.2hPa Calm     93% 0in /  0.0mm 0 W/m2
05:48 56.8 °F /  13.8 °C 54.9 °F /  12.7 °C 29.9in /  1013.2hPa Calm   1mph /  1.6km/h 93% 0in /  0.0mm 0 W/m2
05:53 56.7 °F /  13.7 °C 54.7 °F /  12.6 °C 29.9in /  1013.2hPa Calm     93% 0in /  0.0mm 0 W/m2
05:58 56.7 °F /  13.7 °C 54.7 °F /  12.6 °C 29.9in /  1012.9hPa Calm     93% 0in /  0.0mm 0 W/m2
06:03 56.7 °F /  13.7 °C 54.7 °F /  12.6 °C 29.9in /  1012.9hPa Calm     93% 0in /  0.0mm 0 W/m2
06:08 56.7 °F /  13.7 °C 54.7 °F /  12.6 °C 29.9in /  1012.9hPa Calm     93% 0in /  0.0mm 0 W/m2
06:13 56.7 °F /  13.7 °C 55 °F /  12.8 °C 29.9in /  1012.9hPa SE 0.9mph /  1.4km/h 1mph /  1.6km/h 94% 0in /  0.0mm 0 W/m2
06:18 56.7 °F /  13.7 °C 55 °F /  12.8 °C 29.9in /  1012.9hPa SE 0.9mph /  1.4km/h 1mph /  1.6km/h 94% 0in /  0.0mm 0 W/m2
06:23 56.7 °F /  13.7 °C 55 °F /  12.8 °C 29.9in /  1012.9hPa SE 0.9mph /  1.4km/h 1mph /  1.6km/h 94% 0in /  0.0mm 0 W/m2
06:28 56.8 °F /  13.8 °C 55.2 °F /  12.9 °C 29.9in /  1012.9hPa Calm   1mph /  1.6km/h 94% 0in /  0.0mm 0 W/m2
06:33 56.8 °F /  13.8 °C 54.9 °F /  12.7 °C 29.9in /  1012.9hPa Calm     93% 0in /  0.0mm 0 W/m2
06:38 56.8 °F /  13.8 °C 54.9 °F /  12.7 °C 29.9in /  1012.9hPa Calm   1mph /  1.6km/h 93% 0in /  0.0mm 0 W/m2
06:43 56.7 °F /  13.7 °C 54.7 °F /  12.6 °C 29.9in /  1012.9hPa Calm     93% 0in /  0.0mm 0 W/m2
06:48 56.7 °F /  13.7 °C 54.7 °F /  12.6 °C 29.9in /  1012.9hPa Calm   1mph /  1.6km/h 93% 0in /  0.0mm 0 W/m2
06:53 56.7 °F /  13.7 °C 54.7 °F /  12.6 °C 29.9in /  1012.9hPa Calm     93% 0in /  0.0mm 0 W/m2
06:58 56.7 °F /  13.7 °C 54.7 °F /  12.6 °C 29.9in /  1012.9hPa Calm     93% 0in /  0.0mm 0 W/m2
07:03 56.7 °F /  13.7 °C 54.7 °F /  12.6 °C 29.9in /  1012.9hPa SE 0.9mph /  1.4km/h 1mph /  1.6km/h 93% 0in /  0.0mm 0 W/m2
07:08 56.7 °F /  13.7 °C 54.7 °F /  12.6 °C 29.9in /  1012.9hPa Calm     93% 0in /  0.0mm 0 W/m2
07:13 56.7 °F /  13.7 °C 54.7 °F /  12.6 °C 29.9in /  1012.9hPa Calm     93% 0in /  0.0mm 0 W/m2
07:18 56.7 °F /  13.7 °C 55 °F /  12.8 °C 29.9in /  1012.9hPa Calm     94% 0in /  0.0mm 7 W/m2
07:23 56.7 °F /  13.7 °C 55 °F /  12.8 °C 29.9in /  1012.9hPa Calm     94% 0in /  0.0mm 9 W/m2
07:28 56.5 °F /  13.6 °C 54.9 °F /  12.7 °C 29.9in /  1012.9hPa Calm     94% 0in /  0.0mm 11 W/m2
07:33 56.5 °F /  13.6 °C 54.5 °F /  12.5 °C 29.9in /  1012.9hPa Calm   1mph /  1.6km/h 93% 0in /  0.0mm 12 W/m2
07:38 56.5 °F /  13.6 °C 54.5 °F /  12.5 °C 29.9in /  1012.9hPa Calm   2mph /  3.2km/h 93% 0in /  0.0mm 16 W/m2
07:43 56.5 °F /  13.6 °C 54.5 °F /  12.5 °C 29.9in /  1012.9hPa Calm     93% 0in /  0.0mm 18 W/m2
07:48 56.5 °F /  13.6 °C 54.9 °F /  12.7 °C 29.9in /  1012.9hPa Calm   2mph /  3.2km/h 94% 0in /  0.0mm 19 W/m2
07:53 56.5 °F /  13.6 °C 54.5 °F /  12.5 °C 29.9in /  1012.9hPa Calm     93% 0in /  0.0mm 21 W/m2
07:58 56.5 °F /  13.6 °C 54.9 °F /  12.7 °C 29.9in /  1013.2hPa Calm     94% 0in /  0.0mm 19 W/m2
08:03 56.5 °F /  13.6 °C 54.9 °F /  12.7 °C 29.9in /  1013.2hPa Calm     94% 0in /  0.0mm 21 W/m2
08:08 56.5 °F /  13.6 °C 54.9 °F /  12.7 °C 29.9in /  1013.2hPa Calm     94% 0in /  0.0mm 23 W/m2
08:13 56.5 °F /  13.6 °C 54.9 °F /  12.7 °C 29.9in /  1013.2hPa Calm     94% 0in /  0.0mm 26 W/m2
08:18 56.5 °F /  13.6 °C 54.9 °F /  12.7 °C 29.9in /  1013.2hPa Calm     94% 0in /  0.0mm 32 W/m2
08:23 56.7 °F /  13.7 °C 55 °F /  12.8 °C 29.9in /  1013.2hPa Calm     94% 0in /  0.0mm 44 W/m2
08:28 56.7 °F /  13.7 °C 55 °F /  12.8 °C 29.9in /  1013.2hPa Calm     94% 0in /  0.0mm 77 W/m2
08:33 56.8 °F /  13.8 °C 55.2 °F /  12.9 °C 29.9in /  1013.2hPa Calm     94% 0in /  0.0mm 114 W/m2
08:38 57 °F /  13.9 °C 55.2 °F /  12.9 °C 29.9in /  1013.2hPa Calm     94% 0in /  0.0mm 144 W/m2
08:43 57.4 °F /  14.1 °C 55.6 °F /  13.1 °C 29.9in /  1013.5hPa Calm     94% 0in /  0.0mm 169 W/m2
08:48 57.7 °F /  14.3 °C 55.9 °F /  13.3 °C 29.9in /  1013.5hPa Calm     94% 0in /  0.0mm 102 W/m2
08:53 58.3 °F /  14.6 °C 56.3 °F /  13.5 °C 29.9in /  1013.5hPa Calm     93% 0in /  0.0mm 116 W/m2
08:58 58.8 °F /  14.9 °C 56.5 °F /  13.6 °C 29.9in /  1013.5hPa Calm     92% 0in /  0.0mm 248 W/m2
09:03 59.5 °F /  15.3 °C 56.8 °F /  13.8 °C 29.9in /  1013.5hPa Calm     91% 0in /  0.0mm 207 W/m2
09:08 60.1 °F /  15.6 °C 57.2 °F /  14 °C 29.9in /  1013.5hPa NNE 0.9mph /  1.4km/h 1mph /  1.6km/h 90% 0in /  0.0mm 186 W/m2
09:13 60.6 °F /  15.9 °C 57 °F /  13.9 °C 29.9in /  1013.5hPa NE 0.9mph /  1.4km/h 2mph /  3.2km/h 88% 0in /  0.0mm 118 W/m2
09:18 61 °F /  16.1 °C 56.8 °F /  13.8 °C 29.9in /  1013.5hPa Calm   3mph /  4.8km/h 86% 0in /  0.0mm 139 W/m2
09:23 61.3 °F /  16.3 °C 56.8 °F /  13.8 °C 29.9in /  1013.5hPa Calm   1mph /  1.6km/h 85% 0in /  0.0mm 127 W/m2
09:28 61.5 °F /  16.4 °C 57 °F /  13.9 °C 29.9in /  1013.5hPa SE 2mph /  3.2km/h 4mph /  6.4km/h 85% 0in /  0.0mm 239 W/m2
09:33 61.9 °F /  16.6 °C 57.4 °F /  14.1 °C 29.9in /  1013.2hPa ENE 2.9mph /  4.7km/h 3mph /  4.8km/h 85% 0in /  0.0mm 339 W/m2
09:38 62.2 °F /  16.8 °C 57.4 °F /  14.1 °C 29.9in /  1013.2hPa Calm   4mph /  6.4km/h 84% 0in /  0.0mm 346 W/m2
09:43 62.8 °F /  17.1 °C 57.9 °F /  14.4 °C 29.9in /  1013.2hPa SE 0.9mph /  1.4km/h 3mph /  4.8km/h 84% 0in /  0.0mm 188 W/m2
09:48 63 °F /  17.2 °C 57.7 °F /  14.3 °C 29.9in /  1013.2hPa ENE 2.9mph /  4.7km/h 4mph /  6.4km/h 83% 0in /  0.0mm 127 W/m2
09:53 63 °F /  17.2 °C 57.7 °F /  14.3 °C 29.9in /  1013.2hPa Calm   2mph /  3.2km/h 83% 0in /  0.0mm 148 W/m2
09:58 63 °F /  17.2 °C 57.7 °F /  14.3 °C 29.9in /  1013.2hPa Calm   2mph /  3.2km/h 83% 0in /  0.0mm 243 W/m2
10:03 63.1 °F /  17.3 °C 57.9 °F /  14.4 °C 29.9in /  1013.2hPa NE 2mph /  3.2km/h 3mph /  4.8km/h 83% 0in /  0.0mm 415 W/m2
10:08 63.5 °F /  17.5 °C 58.3 °F /  14.6 °C 29.9in /  1013.2hPa NE 0.9mph /  1.4km/h 2mph /  3.2km/h 83% 0in /  0.0mm 316 W/m2
10:13 63.9 °F /  17.7 °C 58.3 °F /  14.6 °C 29.9in /  1013.2hPa Calm   3mph /  4.8km/h 82% 0in /  0.0mm 339 W/m2
10:18 64.2 °F /  17.9 °C 58.3 °F /  14.6 °C 29.9in /  1013.2hPa NNE 0.9mph /  1.4km/h 2mph /  3.2km/h 81% 0in /  0.0mm 378 W/m2
10:23 64.6 °F /  18.1 °C 58.3 °F /  14.6 °C 29.9in /  1013.2hPa Calm   2mph /  3.2km/h 80% 0in /  0.0mm 271 W/m2
10:28 64.6 °F /  18.1 °C 58.3 °F /  14.6 °C 29.9in /  1013.5hPa East 0.9mph /  1.4km/h 3mph /  4.8km/h 80% 0in /  0.0mm 229 W/m2
10:33 64.6 °F /  18.1 °C 58.3 °F /  14.6 °C 29.9in /  1013.5hPa NE 2mph /  3.2km/h 2mph /  3.2km/h 80% 0in /  0.0mm 253 W/m2
10:38 64.8 °F /  18.2 °C 58.8 °F /  14.9 °C 29.9in /  1013.5hPa NE 0.9mph /  1.4km/h 2mph /  3.2km/h 81% 0in /  0.0mm 327 W/m2
10:43 64.9 °F /  18.3 °C 58.6 °F /  14.8 °C 29.9in /  1013.5hPa NE 4mph /  6.4km/h 4mph /  6.4km/h 80% 0in /  0.0mm 396 W/m2
10:48 65.5 °F /  18.6 °C 59.5 °F /  15.3 °C 29.9in /  1013.5hPa Calm   2mph /  3.2km/h 81% 0in /  0.0mm 462 W/m2
10:54 66 °F /  18.9 °C 59.4 °F /  15.2 °C 29.9in /  1013.5hPa Calm   1mph /  1.6km/h 79% 0in /  0.0mm 322 W/m2
10:59 66.6 °F /  19.2 °C 59.5 °F /  15.3 °C 29.9in /  1013.5hPa East 4mph /  6.4km/h 4mph /  6.4km/h 78% 0in /  0.0mm 220 W/m2
11:04 66.7 °F /  19.3 °C 59.7 °F /  15.4 °C 29.9in /  1013.5hPa Calm   4mph /  6.4km/h 78% 0in /  0.0mm 176 W/m2
11:09 66.6 °F /  19.2 °C 59.5 °F /  15.3 °C 29.9in /  1013.5hPa Calm   2mph /  3.2km/h 78% 0in /  0.0mm 151 W/m2
11:14 66.4 °F /  19.1 °C 59.4 °F /  15.2 °C 29.9in /  1013.5hPa NE 0.9mph /  1.4km/h 3mph /  4.8km/h 78% 0in /  0.0mm 139 W/m2
11:19 66.2 °F /  19 °C 59.5 °F /  15.3 °C 29.9in /  1013.5hPa Calm     79% 0in /  0.0mm 134 W/m2
11:24 66.4 °F /  19.1 °C 59.7 °F /  15.4 °C 29.9in /  1013.5hPa Calm   3mph /  4.8km/h 79% 0in /  0.0mm 123 W/m2
11:29 66.4 °F /  19.1 °C 60.1 °F /  15.6 °C 29.9in /  1013.9hPa Calm     80% 0in /  0.0mm 113 W/m2
11:34 66.4 °F /  19.1 °C 60.1 °F /  15.6 °C 29.9in /  1013.5hPa Calm   2mph /  3.2km/h 80% 0in /  0.0mm 105 W/m2
11:39 66.4 °F /  19.1 °C 60.1 °F /  15.6 °C 29.9in /  1013.5hPa Calm     80% 0in /  0.0mm 102 W/m2
11:44 66.4 °F /  19.1 °C 60.8 °F /  16 °C 29.9in /  1013.5hPa Calm   1mph /  1.6km/h 82% 0in /  0.0mm 100 W/m2
11:49 66.4 °F /  19.1 °C 60.4 °F /  15.8 °C 29.9in /  1013.5hPa Calm     81% 0in /  0.0mm 100 W/m2
11:54 66.4 °F /  19.1 °C 59.7 °F /  15.4 °C 29.9in /  1013.5hPa Calm   1mph /  1.6km/h 79% 0in /  0.0mm 107 W/m2
11:59 66.6 °F /  19.2 °C 60.6 °F /  15.9 °C 29.9in /  1013.5hPa Calm   1mph /  1.6km/h 81% 0in /  0.0mm 114 W/m2
12:04 66.6 °F /  19.2 °C 60.6 °F /  15.9 °C 29.9in /  1013.5hPa Calm     81% 0in /  0.0mm 116 W/m2
12:09 66.7 °F /  19.3 °C 60.8 °F /  16 °C 29.9in /  1013.5hPa NE 0.9mph /  1.4km/h 1mph /  1.6km/h 81% 0in /  0.0mm 107 W/m2
12:14 66.7 °F /  19.3 °C 60.8 °F /  16 °C 29.9in /  1013.5hPa Calm     81% 0in /  0.0mm 104 W/m2
12:19 66.7 °F /  19.3 °C 60.8 °F /  16 °C 29.9in /  1013.9hPa West 2mph /  3.2km/h 2mph /  3.2km/h 81% 0in /  0.0mm 105 W/m2
12:24 66.6 °F /  19.2 °C 60.6 °F /  15.9 °C 29.9in /  1013.5hPa NNW 2mph /  3.2km/h 3mph /  4.8km/h 81% 0in /  0.0mm 116 W/m2
12:29 66.6 °F /  19.2 °C 61 °F /  16.1 °C 29.9in /  1013.2hPa ENE 2mph /  3.2km/h 2mph /  3.2km/h 82% 0in /  0.0mm 146 W/m2
12:34 66.6 °F /  19.2 °C 60.6 °F /  15.9 °C 29.9in /  1013.2hPa WNW 0.9mph /  1.4km/h 3mph /  4.8km/h 81% 0in /  0.0mm 195 W/m2
12:39 66.7 °F /  19.3 °C 61 °F /  16.1 °C 29.9in /  1013.2hPa WNW 0.9mph /  1.4km/h 2mph /  3.2km/h 82% 0in /  0.0mm 262 W/m2
12:44 67.1 °F /  19.5 °C 61.2 °F /  16.2 °C 29.9in /  1013.2hPa WNW 0.9mph /  1.4km/h 3mph /  4.8km/h 81% 0in /  0.0mm 265 W/m2
12:49 67.3 °F /  19.6 °C 61.2 °F /  16.2 °C 29.9in /  1013.5hPa East 0.9mph /  1.4km/h 3mph /  4.8km/h 81% 0in /  0.0mm 279 W/m2
12:54 67.6 °F /  19.8 °C 61.2 °F /  16.2 °C 29.9in /  1013.5hPa Calm   1mph /  1.6km/h 80% 0in /  0.0mm 359 W/m2
12:59 68 °F /  20 °C 61.5 °F /  16.4 °C 29.9in /  1013.5hPa Calm   3mph /  4.8km/h 80% 0in /  0.0mm 422 W/m2
13:04 68.4 °F /  20.2 °C 61.5 °F /  16.4 °C 29.9in /  1013.5hPa Calm   1mph /  1.6km/h 79% 0in /  0.0mm 311 W/m2
13:09 68.7 °F /  20.4 °C 61.9 °F /  16.6 °C 29.9in /  1013.5hPa East 2.9mph /  4.7km/h 4mph /  6.4km/h 79% 0in /  0.0mm 264 W/m2
13:14 69.1 °F /  20.6 °C 62.2 °F /  16.8 °C 29.9in /  1013.5hPa East 0.9mph /  1.4km/h 2mph /  3.2km/h 79% 0in /  0.0mm 230 W/m2
13:19 69.3 °F /  20.7 °C 62.4 °F /  16.9 °C 29.9in /  1013.5hPa Calm   4mph /  6.4km/h 79% 0in /  0.0mm 221 W/m2
13:24 69.4 °F /  20.8 °C 61.9 °F /  16.6 °C 29.9in /  1013.2hPa NE 0.9mph /  1.4km/h 3mph /  4.8km/h 77% 0in /  0.0mm 213 W/m2
13:29 69.6 °F /  20.9 °C 62.4 °F /  16.9 °C 29.9in /  1013.2hPa ENE 2.9mph /  4.7km/h 4mph /  6.4km/h 78% 0in /  0.0mm 169 W/m2
13:34 69.6 °F /  20.9 °C 62.1 °F /  16.7 °C 29.9in /  1013.5hPa Calm   1mph /  1.6km/h 77% 0in /  0.0mm 204 W/m2
13:39 69.6 °F /  20.9 °C 62.4 °F /  16.9 °C 29.9in /  1013.5hPa NE 2mph /  3.2km/h 2mph /  3.2km/h 78% 0in /  0.0mm 250 W/m2
13:44 69.6 °F /  20.9 °C 62.8 °F /  17.1 °C 29.9in /  1013.5hPa SE 0.9mph /  1.4km/h 3mph /  4.8km/h 79% 0in /  0.0mm 237 W/m2
13:49 69.6 °F /  20.9 °C 62.4 °F /  16.9 °C 29.9in /  1013.5hPa Calm   3mph /  4.8km/h 78% 0in /  0.0mm 229 W/m2
13:54 69.8 °F /  21 °C 62.2 °F /  16.8 °C 29.9in /  1013.5hPa ENE 2mph /  3.2km/h 4mph /  6.4km/h 77% 0in /  0.0mm 380 W/m2
13:59 70 °F /  21.1 °C 62.4 °F /  16.9 °C 29.9in /  1013.2hPa NE 0.9mph /  1.4km/h 3mph /  4.8km/h 77% 0in /  0.0mm 304 W/m2
14:04 70.2 °F /  21.2 °C 62.2 °F /  16.8 °C 29.9in /  1013.2hPa East 0.9mph /  1.4km/h 3mph /  4.8km/h 76% 0in /  0.0mm 204 W/m2
14:09 70.2 °F /  21.2 °C 62.6 °F /  17 °C 29.9in /  1013.2hPa ESE 2.9mph /  4.7km/h 3mph /  4.8km/h 77% 0in /  0.0mm 158 W/m2
14:14 70.2 °F /  21.2 °C 62.2 °F /  16.8 °C 29.9in /  1013.2hPa NNE 0.9mph /  1.4km/h 3mph /  4.8km/h 76% 0in /  0.0mm 144 W/m2
14:19 70 °F /  21.1 °C 62.1 °F /  16.7 °C 29.9in /  1013.2hPa Calm   3mph /  4.8km/h 76% 0in /  0.0mm 148 W/m2
14:24 70 °F /  21.1 °C 62.4 °F /  16.9 °C 29.9in /  1013.2hPa Calm   1mph /  1.6km/h 77% 0in /  0.0mm 183 W/m2
14:29 70 °F /  21.1 °C 62.1 °F /  16.7 °C 29.9in /  1013.2hPa Calm     76% 0in /  0.0mm 221 W/m2
14:34 70.2 °F /  21.2 °C 62.6 °F /  17 °C 29.9in /  1013.2hPa ESE 0.9mph /  1.4km/h 1mph /  1.6km/h 77% 0in /  0.0mm 213 W/m2
14:39 70.3 °F /  21.3 °C 62.8 °F /  17.1 °C 29.9in /  1013.2hPa Calm   1mph /  1.6km/h 77% 0in /  0.0mm 185 W/m2
14:44 70.3 °F /  21.3 °C 63.1 °F /  17.3 °C 29.9in /  1013.2hPa ESE 0.9mph /  1.4km/h 2mph /  3.2km/h 78% 0in /  0.0mm 174 W/m2
14:49 70.2 °F /  21.2 °C 62.6 °F /  17 °C 29.9in /  1012.9hPa Calm   2mph /  3.2km/h 77% 0in /  0.0mm 151 W/m2
14:54 70.2 °F /  21.2 °C 63.3 °F /  17.4 °C 29.9in /  1012.9hPa Calm   2mph /  3.2km/h 79% 0in /  0.0mm 202 W/m2
14:59 70.2 °F /  21.2 °C 63.3 °F /  17.4 °C 29.9in /  1012.9hPa Calm     79% 0in /  0.0mm 236 W/m2
15:04 70.3 °F /  21.3 °C 63.1 °F /  17.3 °C 29.9in /  1012.9hPa East 0.9mph /  1.4km/h 3mph /  4.8km/h 78% 0in /  0.0mm 229 W/m2
15:09 70.3 °F /  21.3 °C 62.8 °F /  17.1 °C 29.9in /  1012.9hPa ENE 0.9mph /  1.4km/h 3mph /  4.8km/h 77% 0in /  0.0mm 223 W/m2
15:14 70.5 °F /  21.4 °C 63 °F /  17.2 °C 29.9in /  1012.9hPa ESE 0.9mph /  1.4km/h 3mph /  4.8km/h 77% 0in /  0.0mm 185 W/m2
15:19 70.5 °F /  21.4 °C 63 °F /  17.2 °C 29.9in /  1012.9hPa Calm   3mph /  4.8km/h 77% 0in /  0.0mm 181 W/m2
15:24 70.7 °F /  21.5 °C 63.1 °F /  17.3 °C 29.9in /  1012.9hPa Calm   1mph /  1.6km/h 77% 0in /  0.0mm 216 W/m2
15:29 70.9 °F /  21.6 °C 63.3 °F /  17.4 °C 29.9in /  1013.2hPa ENE 0.9mph /  1.4km/h 3mph /  4.8km/h 77% 0in /  0.0mm 227 W/m2
15:34 70.9 °F /  21.6 °C 63.3 °F /  17.4 °C 29.9in /  1012.9hPa ESE 0.9mph /  1.4km/h 2mph /  3.2km/h 77% 0in /  0.0mm 239 W/m2
15:39 70.9 °F /  21.6 °C 63.3 °F /  17.4 °C 29.9in /  1012.9hPa South 0.9mph /  1.4km/h 2mph /  3.2km/h 77% 0in /  0.0mm 213 W/m2
15:44 70.9 °F /  21.6 °C 63.3 °F /  17.4 °C 29.9in /  1012.9hPa NE 0.9mph /  1.4km/h 1mph /  1.6km/h 77% 0in /  0.0mm 204 W/m2
15:49 71.1 °F /  21.7 °C 63.5 °F /  17.5 °C 29.9in /  1012.9hPa SSE 0.9mph /  1.4km/h 4mph /  6.4km/h 77% 0in /  0.0mm 229 W/m2
15:54 71.1 °F /  21.7 °C 63.1 °F /  17.3 °C 29.9in /  1013.2hPa Calm   6mph /  9.7km/h 76% 0in /  0.0mm 230 W/m2
15:59 71.1 °F /  21.7 °C 63.5 °F /  17.5 °C 29.9in /  1013.2hPa NNW 0.9mph /  1.4km/h 3mph /  4.8km/h 77% 0in /  0.0mm 207 W/m2
16:04 71.2 °F /  21.8 °C 63.3 °F /  17.4 °C 29.9in /  1013.2hPa ENE 2mph /  3.2km/h 6mph /  9.7km/h 76% 0in /  0.0mm 158 W/m2
16:09 71.1 °F /  21.7 °C 63.5 °F /  17.5 °C 29.9in /  1013.5hPa ENE 0.9mph /  1.4km/h 2mph /  3.2km/h 77% 0in /  0.0mm 155 W/m2
16:14 71.1 °F /  21.7 °C 63.5 °F /  17.5 °C 29.9in /  1013.5hPa SW 2mph /  3.2km/h 3mph /  4.8km/h 77% 0in /  0.0mm 128 W/m2
16:19 71.1 °F /  21.7 °C 63.5 °F /  17.5 °C 29.9in /  1013.5hPa SE 0.9mph /  1.4km/h 2mph /  3.2km/h 77% 0in /  0.0mm 104 W/m2
16:24 70.9 °F /  21.6 °C 63.7 °F /  17.6 °C 29.9in /  1013.5hPa ENE 2mph /  3.2km/h 4mph /  6.4km/h 78% 0in /  0.0mm 121 W/m2
16:29 70.9 °F /  21.6 °C 63.7 °F /  17.6 °C 29.9in /  1013.5hPa East 2.9mph /  4.7km/h 5mph /  8km/h 78% 0in /  0.0mm 130 W/m2
16:34 70.9 °F /  21.6 °C 63.7 °F /  17.6 °C 29.9in /  1013.2hPa Calm     78% 0in /  0.0mm 113 W/m2
16:39 70.9 °F /  21.6 °C 63.7 °F /  17.6 °C 29.9in /  1013.2hPa NE 0.9mph /  1.4km/h 2mph /  3.2km/h 78% 0in /  0.0mm 83 W/m2
16:44 71.1 °F /  21.7 °C 64.2 °F /  17.9 °C 29.9in /  1013.2hPa Calm     79% 0in /  0.0mm 74 W/m2
16:49 71.1 °F /  21.7 °C 64.2 °F /  17.9 °C 29.9in /  1013.2hPa Calm     79% 0in /  0.0mm 76 W/m2
16:54 71.1 °F /  21.7 °C 64.6 °F /  18.1 °C 29.9in /  1013.2hPa Calm     80% 0in /  0.0mm 97 W/m2
16:59 71.1 °F /  21.7 °C 64.9 °F /  18.3 °C 29.9in /  1013.2hPa Calm   1mph /  1.6km/h 81% 0in /  0.0mm 104 W/m2
17:04 71.1 °F /  21.7 °C 64.6 °F /  18.1 °C 29.9in /  1013.2hPa Calm     80% 0in /  0.0mm 98 W/m2
17:09 71.2 °F /  21.8 °C 64.8 °F /  18.2 °C 29.9in /  1012.9hPa ESE 0.9mph /  1.4km/h 1mph /  1.6km/h 80% 0in /  0.0mm 100 W/m2
17:14 71.2 °F /  21.8 °C 64.4 °F /  18 °C 29.9in /  1012.9hPa Calm   1mph /  1.6km/h 79% 0in /  0.0mm 105 W/m2
17:19 71.2 °F /  21.8 °C 64.4 °F /  18 °C 29.9in /  1012.9hPa Calm   1mph /  1.6km/h 79% 0in /  0.0mm 95 W/m2
17:24 71.4 °F /  21.9 °C 64.6 °F /  18.1 °C 29.9in /  1012.9hPa Calm     79% 0in /  0.0mm 88 W/m2
17:29 71.4 °F /  21.9 °C 64.2 °F /  17.9 °C 29.9in /  1012.9hPa Calm     78% 0in /  0.0mm 67 W/m2
17:34 71.4 °F /  21.9 °C 64.9 °F /  18.3 °C 29.9in /  1012.9hPa SE 2mph /  3.2km/h 2mph /  3.2km/h 80% 0in /  0.0mm 76 W/m2
17:39 71.4 °F /  21.9 °C 64.6 °F /  18.1 °C 29.9in /  1012.5hPa SSE 0.9mph /  1.4km/h 2mph /  3.2km/h 79% 0in /  0.0mm 84 W/m2
17:44 71.4 °F /  21.9 °C 64.9 °F /  18.3 °C 29.9in /  1012.5hPa Calm     80% 0in /  0.0mm 83 W/m2
17:49 71.2 °F /  21.8 °C 64.8 °F /  18.2 °C 29.9in /  1012.5hPa Calm   1mph /  1.6km/h 80% 0in /  0.0mm 84 W/m2
17:54 71.2 °F /  21.8 °C 64.8 °F /  18.2 °C 29.9in /  1012.5hPa Calm   1mph /  1.6km/h 80% 0in /  0.0mm 88 W/m2
17:59 71.2 °F /  21.8 °C 65.1 °F /  18.4 °C 29.9in /  1012.5hPa Calm     81% 0in /  0.0mm 67 W/m2
18:04 71.2 °F /  21.8 °C 64.8 °F /  18.2 °C 29.9in /  1012.2hPa Calm   1mph /  1.6km/h 80% 0in /  0.0mm 56 W/m2
18:09 71.2 °F /  21.8 °C 64.8 °F /  18.2 °C 29.9in /  1012.2hPa Calm   1mph /  1.6km/h 80% 0in /  0.0mm 54 W/m2
18:14 71.2 °F /  21.8 °C 64.8 °F /  18.2 °C 29.9in /  1011.9hPa Calm     80% 0in /  0.0mm 67 W/m2
18:19 71.1 °F /  21.7 °C 64.9 °F /  18.3 °C 29.9in /  1011.9hPa Calm   1mph /  1.6km/h 81% 0in /  0.0mm 69 W/m2
18:24 71.1 °F /  21.7 °C 64.9 °F /  18.3 °C 29.9in /  1012.2hPa Calm     81% 0in /  0.0mm 58 W/m2
18:29 70.9 °F /  21.6 °C 65.1 °F /  18.4 °C 29.9in /  1012.2hPa East 0.9mph /  1.4km/h 1mph /  1.6km/h 82% 0in /  0.0mm 54 W/m2
18:34 70.9 °F /  21.6 °C 65.1 °F /  18.4 °C 29.9in /  1012.2hPa Calm     82% 0in /  0.0mm 69 W/m2
18:39 70.7 °F /  21.5 °C 64.9 °F /  18.3 °C 29.9in /  1012.2hPa Calm     82% 0in /  0.0mm 74 W/m2
18:44 70.5 °F /  21.4 °C 64.8 °F /  18.2 °C 29.9in /  1012.2hPa Calm     82% 0in /  0.0mm 60 W/m2
18:49 70.7 °F /  21.5 °C 65.3 °F /  18.5 °C 29.9in /  1012.2hPa Calm     83% 0in /  0.0mm 53 W/m2
18:54 70.5 °F /  21.4 °C 65.1 °F /  18.4 °C 29.9in /  1012.2hPa Calm     83% 0in /  0.0mm 49 W/m2
18:59 70.5 °F /  21.4 °C 65.1 °F /  18.4 °C 29.9in /  1012.2hPa Calm     83% 0in /  0.0mm 40 W/m2
19:04 70.3 °F /  21.3 °C 64.9 °F /  18.3 °C 29.9in /  1011.9hPa Calm     83% 0in /  0.0mm 33 W/m2
19:09 70.2 °F /  21.2 °C 65.1 °F /  18.4 °C 29.9in /  1011.9hPa Calm     84% 0in /  0.0mm 30 W/m2
19:14 70 °F /  21.1 °C 64.9 °F /  18.3 °C 29.9in /  1011.9hPa Calm     84% 0in /  0.0mm 26 W/m2
19:19 69.4 °F /  20.8 °C 64.4 °F /  18 °C 29.9in /  1011.9hPa Calm     84% 0in /  0.0mm 23 W/m2
19:24 69.3 °F /  20.7 °C 64.6 °F /  18.1 °C 29.9in /  1011.9hPa Calm     85% 0in /  0.0mm 14 W/m2
19:29 69.1 °F /  20.6 °C 64.4 °F /  18 °C 29.9in /  1011.9hPa Calm     85% 0in /  0.0mm 12 W/m2
19:35 68.7 °F /  20.4 °C 64 °F /  17.8 °C 29.9in /  1011.9hPa Calm     85% 0in /  0.0mm 9 W/m2
19:40 68.7 °F /  20.4 °C 64.4 °F /  18 °C 29.9in /  1011.9hPa Calm     86% 0in /  0.0mm 7 W/m2
19:45 68.4 °F /  20.2 °C 64 °F /  17.8 °C 29.9in /  1011.9hPa SE 0.9mph /  1.4km/h 1mph /  1.6km/h 86% 0in /  0.0mm 0 W/m2
19:50 68.2 °F /  20.1 °C 63.9 °F /  17.7 °C 29.9in /  1011.9hPa Calm     86% 0in /  0.0mm 0 W/m2
19:55 67.8 °F /  19.9 °C 63.9 °F /  17.7 °C 29.9in /  1011.9hPa Calm     87% 0in /  0.0mm 0 W/m2
20:00 67.6 °F /  19.8 °C 63.7 °F /  17.6 °C 29.9in /  1011.9hPa Calm     87% 0in /  0.0mm 0 W/m2
20:05 67.5 °F /  19.7 °C 63.9 °F /  17.7 °C 29.9in /  1011.9hPa Calm     88% 0in /  0.0mm 0 W/m2
20:10 67.3 °F /  19.6 °C 63.7 °F /  17.6 °C 29.9in /  1011.9hPa Calm     88% 0in /  0.0mm 0 W/m2
20:15 67.3 °F /  19.6 °C 63.7 °F /  17.6 °C 29.9in /  1012.2hPa Calm     88% 0in /  0.0mm 0 W/m2
20:20 66.9 °F /  19.4 °C 63.3 °F /  17.4 °C 29.9in /  1012.2hPa Calm     88% 0in /  0.0mm 0 W/m2
20:25 66.7 °F /  19.3 °C 63.3 °F /  17.4 °C 29.9in /  1012.2hPa Calm     89% 0in /  0.0mm 0 W/m2
20:30 66.7 °F /  19.3 °C 63.3 °F /  17.4 °C 29.9in /  1012.2hPa Calm     89% 0in /  0.0mm 0 W/m2
20:35 66.6 °F /  19.2 °C 63.1 °F /  17.3 °C 29.9in /  1012.2hPa Calm     89% 0in /  0.0mm 0 W/m2
20:40 66.4 °F /  19.1 °C 63.3 °F /  17.4 °C 29.9in /  1012.2hPa Calm     90% 0in /  0.0mm 0 W/m2
20:45 66 °F /  18.9 °C 63 °F /  17.2 °C 29.9in /  1012.2hPa Calm     90% 0in /  0.0mm 0 W/m2
20:50 66 °F /  18.9 °C 63 °F /  17.2 °C 29.9in /  1012.2hPa Calm     90% 0in /  0.0mm 0 W/m2
20:55 65.8 °F /  18.8 °C 63.1 °F /  17.3 °C 29.9in /  1012.2hPa Calm     91% 0in /  0.0mm 0 W/m2
21:00 65.7 °F /  18.7 °C 63 °F /  17.2 °C 29.9in /  1012.2hPa Calm     91% 0in /  0.0mm 0 W/m2
21:05 65.7 °F /  18.7 °C 63 °F /  17.2 °C 29.9in /  1012.5hPa Calm     91% 0in /  0.0mm 0 W/m2
21:10 65.7 °F /  18.7 °C 63 °F /  17.2 °C 29.9in /  1012.2hPa Calm     91% 0in /  0.0mm 0 W/m2
21:15 65.7 °F /  18.7 °C 63.3 °F /  17.4 °C 29.9in /  1012.2hPa Calm     92% 0in /  0.0mm 0 W/m2
21:20 65.5 °F /  18.6 °C 63.1 °F /  17.3 °C 29.9in /  1012.2hPa Calm     92% 0in /  0.0mm 0 W/m2
21:25 65.5 °F /  18.6 °C 63.1 °F /  17.3 °C 29.9in /  1012.2hPa Calm     92% 0in /  0.0mm 0 W/m2
21:30 65.5 °F /  18.6 °C 63.1 °F /  17.3 °C 29.9in /  1012.2hPa Calm     92% 0in /  0.0mm 0 W/m2
21:35 65.5 °F /  18.6 °C 63.1 °F /  17.3 °C 29.9in /  1012.2hPa Calm     92% 0in /  0.0mm 0 W/m2
21:40 65.3 °F /  18.5 °C 63 °F /  17.2 °C 29.9in /  1012.2hPa Calm     92% 0in /  0.0mm 0 W/m2
21:45 65.1 °F /  18.4 °C 63 °F /  17.2 °C 29.9in /  1012.5hPa Calm     93% 0in /  0.0mm 0 W/m2
21:50 65.1 °F /  18.4 °C 63 °F /  17.2 °C 29.9in /  1012.5hPa Calm     93% 0in /  0.0mm 0 W/m2
21:55 65.1 °F /  18.4 °C 63 °F /  17.2 °C 29.9in /  1012.5hPa Calm     93% 0in /  0.0mm 0 W/m2
22:00 65.1 °F /  18.4 °C 63 °F /  17.2 °C 29.9in /  1012.5hPa Calm     93% 0in /  0.0mm 0 W/m2
22:05 64.9 °F /  18.3 °C 62.8 °F /  17.1 °C 29.9in /  1012.2hPa Calm     93% 0in /  0.0mm 0 W/m2
22:10 64.9 °F /  18.3 °C 62.8 °F /  17.1 °C 29.9in /  1012.2hPa Calm     93% 0in /  0.0mm 0 W/m2
22:15 64.9 °F /  18.3 °C 62.8 °F /  17.1 °C 29.9in /  1012.5hPa Calm     93% 0in /  0.0mm 0 W/m2
22:20 64.8 °F /  18.2 °C 62.6 °F /  17 °C 29.9in /  1012.2hPa Calm     93% 0in /  0.0mm 0 W/m2
22:25 64.8 °F /  18.2 °C 62.6 °F /  17 °C 29.9in /  1012.2hPa Calm     93% 0in /  0.0mm 0 W/m2
22:30 64.8 °F /  18.2 °C 62.6 °F /  17 °C 29.9in /  1012.2hPa Calm     93% 0in /  0.0mm 0 W/m2
22:35 64.6 °F /  18.1 °C 62.4 °F /  16.9 °C 29.9in /  1012.2hPa Calm     93% 0in /  0.0mm 0 W/m2
22:40 64.6 °F /  18.1 °C 62.4 °F /  16.9 °C 29.9in /  1012.2hPa Calm     93% 0in /  0.0mm 0 W/m2
22:45 64.6 °F /  18.1 °C 62.8 °F /  17.1 °C 29.9in /  1012.2hPa Calm     94% 0in /  0.0mm 0 W/m2
22:50 64.6 °F /  18.1 °C 62.4 °F /  16.9 °C 29.9in /  1012.2hPa Calm     93% 0in /  0.0mm 0 W/m2
22:55 64.6 °F /  18.1 °C 62.8 °F /  17.1 °C 29.9in /  1012.2hPa Calm     94% 0in /  0.0mm 0 W/m2
23:00 64.6 °F /  18.1 °C 62.8 °F /  17.1 °C 29.9in /  1012.2hPa Calm     94% 0in /  0.0mm 0 W/m2
23:05 64.6 °F /  18.1 °C 62.8 °F /  17.1 °C 29.9in /  1012.2hPa Calm     94% 0in /  0.0mm 0 W/m2
23:10 64.6 °F /  18.1 °C 62.8 °F /  17.1 °C 29.9in /  1011.9hPa Calm     94% 0in /  0.0mm 0 W/m2
23:15 64.6 °F /  18.1 °C 62.8 °F /  17.1 °C 29.9in /  1011.9hPa Calm     94% 0in /  0.0mm 0 W/m2
23:20 64.6 °F /  18.1 °C 62.8 °F /  17.1 °C 29.9in /  1011.9hPa Calm     94% 0in /  0.0mm 0 W/m2
23:25 64.6 °F /  18.1 °C 62.8 °F /  17.1 °C 29.9in /  1011.9hPa Calm     94% 0in /  0.0mm 0 W/m2
23:30 64.6 °F /  18.1 °C 62.8 °F /  17.1 °C 29.9in /  1011.9hPa Calm     94% 0in /  0.0mm 0 W/m2
23:35 64.4 °F /  18 °C 62.6 °F /  17 °C 29.9in /  1011.9hPa Calm     94% 0in /  0.0mm 0 W/m2
23:41 64.4 °F /  18 °C 62.6 °F /  17 °C 29.9in /  1011.9hPa Calm     94% 0in /  0.0mm 0 W/m2
23:46 64.2 °F /  17.9 °C 62.4 °F /  16.9 °C 29.9in /  1011.9hPa Calm     94% 0in /  0.0mm 0 W/m2
23:51 64.2 °F /  17.9 °C 62.4 °F /  16.9 °C 29.9in /  1011.9hPa Calm     94% 0in /  0.0mm 0 W/m2
23:56 64.2 °F /  17.9 °C 62.4 °F /  16.9 °C 29.9in /  1011.9hPa Calm     94% 0in /  0.0mm 0 W/m2
Juneau County Weather
Compliments of Weather Underground - 2 mb